sensor_id;sensor_type;location;lat;lon;timestamp;pressure;altitude;pressure_sealevel;temperature;humidity
49979;BME280;35869;50.990;6.962;2023-02-11T00:04:24;103217.97;;;7.35;89.94
49979;BME280;35869;50.990;6.962;2023-02-11T00:09:24;103223.03;;;7.24;89.28
49979;BME280;35869;50.990;6.962;2023-02-11T00:14:25;103218.66;;;7.20;89.10
49979;BME280;35869;50.990;6.962;2023-02-11T00:19:25;103211.09;;;7.40;90.09
49979;BME280;35869;50.990;6.962;2023-02-11T00:24:25;103199.84;;;7.35;89.30
49979;BME280;35869;50.990;6.962;2023-02-11T00:29:25;103205.97;;;7.46;89.77
49979;BME280;35869;50.990;6.962;2023-02-11T00:34:26;103211.88;;;7.28;89.26
49979;BME280;35869;50.990;6.962;2023-02-11T00:39:26;103206.81;;;7.43;89.63
49979;BME280;35869;50.990;6.962;2023-02-11T00:44:26;103198.31;;;7.58;89.47
49979;BME280;35869;50.990;6.962;2023-02-11T00:49:26;103192.16;;;7.44;89.59
49979;BME280;35869;50.990;6.962;2023-02-11T00:54:27;103183.63;;;7.54;89.71
49979;BME280;35869;50.990;6.962;2023-02-11T00:59:27;103180.97;;;7.49;90.14
49979;BME280;35869;50.990;6.962;2023-02-11T01:04:27;103182.56;;;7.32;89.34
49979;BME280;35869;50.990;6.962;2023-02-11T01:09:28;103180.88;;;7.34;89.45
49979;BME280;35869;50.990;6.962;2023-02-11T01:14:28;103184.38;;;7.42;89.64
49979;BME280;35869;50.990;6.962;2023-02-11T01:19:28;103186.91;;;7.36;89.64
49979;BME280;35869;50.990;6.962;2023-02-11T01:24:28;103195.38;;;7.17;90.10
49979;BME280;35869;50.990;6.962;2023-02-11T01:29:29;103186.91;;;7.33;90.05
49979;BME280;35869;50.990;6.962;2023-02-11T01:34:29;103187.69;;;7.26;89.83
49979;BME280;35869;50.990;6.962;2023-02-11T01:39:32;103193.66;;;7.16;90.03
49979;BME280;35869;50.990;6.962;2023-02-11T01:44:37;103207.44;;;7.19;90.21
49979;BME280;35869;50.990;6.962;2023-02-11T01:49:46;103210.84;;;7.14;90.05
49979;BME280;35869;50.990;6.962;2023-02-11T01:54:50;103214.34;;;7.16;90.42
49979;BME280;35869;50.990;6.962;2023-02-11T02:05:23;103197.75;;;6.97;90.72
49979;BME280;35869;50.990;6.962;2023-02-11T02:10:26;103205.63;;;7.09;90.67
49979;BME280;35869;50.990;6.962;2023-02-11T02:15:36;103197.09;;;7.16;90.16
49979;BME280;35869;50.990;6.962;2023-02-11T02:42:27;103180.38;;;6.82;90.78
49979;BME280;35869;50.990;6.962;2023-02-11T02:47:27;103172.63;;;6.85;91.21
49979;BME280;35869;50.990;6.962;2023-02-11T02:52:47;103151.81;;;6.70;91.12
49979;BME280;35869;50.990;6.962;2023-02-11T03:08:32;103137.16;;;6.69;91.19
49979;BME280;35869;50.990;6.962;2023-02-11T03:13:36;103144.00;;;6.64;91.04
49979;BME280;35869;50.990;6.962;2023-02-11T03:18:40;103134.53;;;6.67;91.33
49979;BME280;35869;50.990;6.962;2023-02-11T03:23:51;103155.19;;;6.67;90.85
49979;BME280;35869;50.990;6.962;2023-02-11T03:34:21;103149.09;;;6.61;91.55
49979;BME280;35869;50.990;6.962;2023-02-11T03:39:29;103145.56;;;6.53;91.54
49979;BME280;35869;50.990;6.962;2023-02-11T03:44:36;103119.75;;;6.56;91.61
49979;BME280;35869;50.990;6.962;2023-02-11T03:49:39;103116.19;;;6.45;92.44
49979;BME280;35869;50.990;6.962;2023-02-11T03:54:42;103125.91;;;6.65;91.87
49979;BME280;35869;50.990;6.962;2023-02-11T03:59:56;103133.44;;;6.46;91.30
49979;BME280;35869;50.990;6.962;2023-02-11T04:04:57;103139.75;;;6.71;91.99
49979;BME280;35869;50.990;6.962;2023-02-11T04:09:58;103139.88;;;6.86;92.04
49979;BME280;35869;50.990;6.962;2023-02-11T04:14:58;103148.44;;;6.79;91.57
49979;BME280;35869;50.990;6.962;2023-02-11T04:19:58;103133.88;;;6.87;91.98
49979;BME280;35869;50.990;6.962;2023-02-11T04:24:58;103133.53;;;6.53;91.89
49979;BME280;35869;50.990;6.962;2023-02-11T04:29:59;103120.91;;;6.82;91.89
49979;BME280;35869;50.990;6.962;2023-02-11T04:34:59;103108.69;;;6.66;91.80
49979;BME280;35869;50.990;6.962;2023-02-11T04:39:59;103103.50;;;6.66;91.50
49979;BME280;35869;50.990;6.962;2023-02-11T04:45:00;103108.78;;;6.77;92.09
49979;BME280;35869;50.990;6.962;2023-02-11T04:50:00;103103.63;;;6.78;92.14
49979;BME280;35869;50.990;6.962;2023-02-11T04:55:00;103107.81;;;6.65;91.37
49979;BME280;35869;50.990;6.962;2023-02-11T05:00:00;103117.34;;;6.70;92.26
49979;BME280;35869;50.990;6.962;2023-02-11T05:05:01;103107.03;;;6.74;92.83
49979;BME280;35869;50.990;6.962;2023-02-11T05:10:01;103118.19;;;6.68;92.37
49979;BME280;35869;50.990;6.962;2023-02-11T05:15:01;103114.03;;;6.84;92.64
49979;BME280;35869;50.990;6.962;2023-02-11T05:20:02;103106.94;;;6.65;91.68
49979;BME280;35869;50.990;6.962;2023-02-11T05:25:02;103107.00;;;6.71;92.41
49979;BME280;35869;50.990;6.962;2023-02-11T05:30:03;103117.53;;;6.89;92.32
49979;BME280;35869;50.990;6.962;2023-02-11T05:35:04;103109.81;;;6.92;92.10
49979;BME280;35869;50.990;6.962;2023-02-11T05:40:05;103107.19;;;6.89;92.41
49979;BME280;35869;50.990;6.962;2023-02-11T05:45:05;103114.22;;;7.04;92.32
49979;BME280;35869;50.990;6.962;2023-02-11T05:50:06;103109.22;;;7.26;92.50
49979;BME280;35869;50.990;6.962;2023-02-11T05:55:06;103108.22;;;7.07;92.23
49979;BME280;35869;50.990;6.962;2023-02-11T06:00:07;103096.28;;;7.24;92.63
49979;BME280;35869;50.990;6.962;2023-02-11T06:05:08;103093.78;;;7.38;92.11
49979;BME280;35869;50.990;6.962;2023-02-11T06:10:09;103082.34;;;7.07;93.30
49979;BME280;35869;50.990;6.962;2023-02-11T06:15:10;103085.16;;;7.34;93.17
49979;BME280;35869;50.990;6.962;2023-02-11T06:20:10;103074.81;;;7.37;92.24
49979;BME280;35869;50.990;6.962;2023-02-11T06:25:11;103091.22;;;7.39;92.36
49979;BME280;35869;50.990;6.962;2023-02-11T06:30:11;103091.97;;;7.26;92.66
49979;BME280;35869;50.990;6.962;2023-02-11T06:35:13;103090.41;;;7.45;92.96
49979;BME280;35869;50.990;6.962;2023-02-11T06:40:14;103090.34;;;7.34;92.36
49979;BME280;35869;50.990;6.962;2023-02-11T06:45:14;103097.22;;;7.37;92.88
49979;BME280;35869;50.990;6.962;2023-02-11T06:50:14;103101.34;;;7.12;93.60
49979;BME280;35869;50.990;6.962;2023-02-11T06:55:15;103111.75;;;7.19;92.96
49979;BME280;35869;50.990;6.962;2023-02-11T07:00:15;103111.91;;;7.36;93.53
49979;BME280;35869;50.990;6.962;2023-02-11T07:05:16;103118.78;;;7.34;93.59
49979;BME280;35869;50.990;6.962;2023-02-11T07:10:16;103112.75;;;7.38;93.58
49979;BME280;35869;50.990;6.962;2023-02-11T07:15:16;103111.97;;;7.47;93.86
49979;BME280;35869;50.990;6.962;2023-02-11T07:20:16;103120.69;;;7.60;94.20
49979;BME280;35869;50.990;6.962;2023-02-11T07:25:17;103119.78;;;7.52;94.70
49979;BME280;35869;50.990;6.962;2023-02-11T07:30:17;103123.16;;;7.41;94.17
49979;BME280;35869;50.990;6.962;2023-02-11T07:35:17;103137.84;;;7.45;94.16
49979;BME280;35869;50.990;6.962;2023-02-11T07:40:17;103144.47;;;7.13;95.03
49979;BME280;35869;50.990;6.962;2023-02-11T07:45:18;103146.28;;;7.26;94.50
49979;BME280;35869;50.990;6.962;2023-02-11T07:50:18;103144.34;;;7.02;95.07
49979;BME280;35869;50.990;6.962;2023-02-11T07:55:18;103148.66;;;7.03;95.78
49979;BME280;35869;50.990;6.962;2023-02-11T08:00:18;103162.41;;;6.98;96.33
49979;BME280;35869;50.990;6.962;2023-02-11T08:05:19;103161.59;;;7.02;96.00
49979;BME280;35869;50.990;6.962;2023-02-11T08:10:20;103165.84;;;6.97;95.63
49979;BME280;35869;50.990;6.962;2023-02-11T08:15:20;103158.03;;;6.90;95.85
49979;BME280;35869;50.990;6.962;2023-02-11T08:20:20;103169.97;;;6.79;96.57
49979;BME280;35869;50.990;6.962;2023-02-11T08:25:21;103170.84;;;6.78;97.18
49979;BME280;35869;50.990;6.962;2023-02-11T08:30:21;103163.94;;;6.77;98.10
49979;BME280;35869;50.990;6.962;2023-02-11T08:35:21;103166.53;;;6.77;97.00
49979;BME280;35869;50.990;6.962;2023-02-11T08:40:21;103157.81;;;6.69;99.23
49979;BME280;35869;50.990;6.962;2023-02-11T08:45:22;103175.06;;;6.68;98.48
49979;BME280;35869;50.990;6.962;2023-02-11T08:50:22;103169.91;;;6.73;98.20
49979;BME280;35869;50.990;6.962;2023-02-11T08:55:22;103173.28;;;6.66;99.19
49979;BME280;35869;50.990;6.962;2023-02-11T09:00:23;103185.34;;;6.67;98.66
49979;BME280;35869;50.990;6.962;2023-02-11T09:05:23;103204.38;;;6.72;98.79
49979;BME280;35869;50.990;6.962;2023-02-11T09:10:23;103211.22;;;6.68;98.99
49979;BME280;35869;50.990;6.962;2023-02-11T09:15:23;103212.84;;;6.62;98.90
49979;BME280;35869;50.990;6.962;2023-02-11T09:20:24;103212.91;;;6.68;99.42
49979;BME280;35869;50.990;6.962;2023-02-11T09:25:25;103214.69;;;6.69;99.08
49979;BME280;35869;50.990;6.962;2023-02-11T09:30:25;103216.28;;;6.62;100.00
49979;BME280;35869;50.990;6.962;2023-02-11T09:35:25;103214.63;;;6.66;100.00
49979;BME280;35869;50.990;6.962;2023-02-11T09:40:25;103227.53;;;6.63;100.00
49979;BME280;35869;50.990;6.962;2023-02-11T09:45:27;103218.09;;;6.66;100.00
49979;BME280;35869;50.990;6.962;2023-02-11T09:50:31;103224.25;;;6.78;100.00
49979;BME280;35869;50.990;6.962;2023-02-11T09:55:39;103230.13;;;6.66;100.00
49979;BME280;35869;50.990;6.962;2023-02-11T10:00:45;103237.03;;;6.65;100.00
49979;BME280;35869;50.990;6.962;2023-02-11T10:11:03;103242.19;;;6.65;100.00
49979;BME280;35869;50.990;6.962;2023-02-11T10:16:26;103248.22;;;6.66;100.00
49979;BME280;35869;50.990;6.962;2023-02-11T10:26:51;103257.81;;;6.75;100.00
49979;BME280;35869;50.990;6.962;2023-02-11T10:31:52;103245.78;;;6.75;100.00
49979;BME280;35869;50.990;6.962;2023-02-11T10:36:53;103249.31;;;6.83;100.00
49979;BME280;35869;50.990;6.962;2023-02-11T10:42:00;103255.25;;;6.76;100.00
49979;BME280;35869;50.990;6.962;2023-02-11T10:47:08;103254.47;;;6.83;100.00
49979;BME280;35869;50.990;6.962;2023-02-11T10:57:19;103256.28;;;6.90;100.00
49979;BME280;35869;50.990;6.962;2023-02-11T11:02:23;103251.16;;;6.92;100.00
49979;BME280;35869;50.990;6.962;2023-02-11T11:07:26;103258.78;;;6.86;100.00
49979;BME280;35869;50.990;6.962;2023-02-11T11:12:39;103253.72;;;6.93;100.00
49979;BME280;35869;50.990;6.962;2023-02-11T11:17:45;103261.41;;;6.87;100.00
49979;BME280;35869;50.990;6.962;2023-02-11T11:22:47;103259.75;;;6.92;100.00
49979;BME280;35869;50.990;6.962;2023-02-11T11:27:53;103250.41;;;7.05;100.00
49979;BME280;35869;50.990;6.962;2023-02-11T11:32:54;103246.03;;;7.00;100.00
49979;BME280;35869;50.990;6.962;2023-02-11T11:38:00;103245.31;;;7.14;100.00
49979;BME280;35869;50.990;6.962;2023-02-11T11:48:34;103247.13;;;7.20;100.00
49979;BME280;35869;50.990;6.962;2023-02-11T11:54:01;103242.72;;;7.13;100.00
49979;BME280;35869;50.990;6.962;2023-02-11T11:59:09;103239.28;;;7.11;100.00
49979;BME280;35869;50.990;6.962;2023-02-11T12:20:31;103231.69;;;7.28;100.00
49979;BME280;35869;50.990;6.962;2023-02-11T12:47:11;103242.97;;;7.34;100.00
49979;BME280;35869;50.990;6.962;2023-02-11T12:57:27;103242.09;;;7.37;100.00
49979;BME280;35869;50.990;6.962;2023-02-11T13:07:38;103223.22;;;7.45;100.00
49979;BME280;35869;50.990;6.962;2023-02-11T13:12:44;103218.88;;;7.44;100.00
49979;BME280;35869;50.990;6.962;2023-02-11T13:23:40;103228.34;;;7.41;100.00
49979;BME280;35869;50.990;6.962;2023-02-11T13:29:15;103216.28;;;7.43;100.00
49979;BME280;35869;50.990;6.962;2023-02-11T13:34:53;103215.53;;;7.55;100.00
49979;BME280;35869;50.990;6.962;2023-02-11T13:39:57;103212.94;;;7.52;100.00
49979;BME280;35869;50.990;6.962;2023-02-11T13:44:58;103222.41;;;7.51;100.00
49979;BME280;35869;50.990;6.962;2023-02-11T13:50:00;103220.66;;;7.45;100.00
49979;BME280;35869;50.990;6.962;2023-02-11T14:05:34;103215.53;;;7.55;100.00
49979;BME280;35869;50.990;6.962;2023-02-11T14:15:40;103215.72;;;7.79;100.00
49979;BME280;35869;50.990;6.962;2023-02-11T14:20:41;103213.97;;;7.75;100.00
49979;BME280;35869;50.990;6.962;2023-02-11T14:25:43;103208.03;;;7.88;100.00
49979;BME280;35869;50.990;6.962;2023-02-11T14:36:13;103220.97;;;7.87;100.00
49979;BME280;35869;50.990;6.962;2023-02-11T14:41:22;103220.97;;;7.91;100.00
49979;BME280;35869;50.990;6.962;2023-02-11T14:46:24;103227.97;;;8.01;100.00
49979;BME280;35869;50.990;6.962;2023-02-11T14:51:27;103221.09;;;8.07;100.00
49979;BME280;35869;50.990;6.962;2023-02-11T14:56:30;103222.78;;;8.01;100.00
49979;BME280;35869;50.990;6.962;2023-02-11T15:01:33;103221.13;;;8.10;100.00
49979;BME280;35869;50.990;6.962;2023-02-11T15:06:45;103226.28;;;8.04;100.00
49979;BME280;35869;50.990;6.962;2023-02-11T15:11:47;103234.13;;;8.17;100.00
49979;BME280;35869;50.990;6.962;2023-02-11T15:16:49;103235.91;;;8.27;100.00
49979;BME280;35869;50.990;6.962;2023-02-11T15:21:51;103230.69;;;8.21;100.00
49979;BME280;35869;50.990;6.962;2023-02-11T15:32:14;103241.03;;;8.17;100.00
49979;BME280;35869;50.990;6.962;2023-02-11T15:37:21;103250.56;;;8.21;100.00
49979;BME280;35869;50.990;6.962;2023-02-11T15:42:29;103261.00;;;8.33;100.00
49979;BME280;35869;50.990;6.962;2023-02-11T15:47:30;103249.72;;;8.28;100.00
49979;BME280;35869;50.990;6.962;2023-02-11T15:52:30;103263.63;;;8.36;100.00
49979;BME280;35869;50.990;6.962;2023-02-11T15:57:32;103256.75;;;8.40;100.00
49979;BME280;35869;50.990;6.962;2023-02-11T16:02:34;103254.88;;;8.26;100.00
49979;BME280;35869;50.990;6.962;2023-02-11T16:07:45;103255.81;;;8.33;100.00
49979;BME280;35869;50.990;6.962;2023-02-11T16:23:28;103267.88;;;8.28;100.00
49979;BME280;35869;50.990;6.962;2023-02-11T16:28:31;103279.97;;;8.32;100.00
49979;BME280;35869;50.990;6.962;2023-02-11T16:33:31;103280.78;;;8.23;100.00
49979;BME280;35869;50.990;6.962;2023-02-11T16:38:32;103285.06;;;8.20;100.00
49979;BME280;35869;50.990;6.962;2023-02-11T16:43:32;103296.28;;;8.17;100.00
49979;BME280;35869;50.990;6.962;2023-02-11T16:48:32;103302.34;;;8.18;100.00
49979;BME280;35869;50.990;6.962;2023-02-11T16:53:32;103300.56;;;8.11;100.00
49979;BME280;35869;50.990;6.962;2023-02-11T16:58:32;103306.59;;;8.10;100.00
49979;BME280;35869;50.990;6.962;2023-02-11T17:03:33;103303.88;;;7.94;100.00
49979;BME280;35869;50.990;6.962;2023-02-11T17:08:34;103305.66;;;7.98;100.00
49979;BME280;35869;50.990;6.962;2023-02-11T17:13:34;103302.13;;;7.90;100.00
49979;BME280;35869;50.990;6.962;2023-02-11T17:18:34;103311.66;;;7.96;100.00
49979;BME280;35869;50.990;6.962;2023-02-11T17:23:34;103317.66;;;7.90;100.00
49979;BME280;35869;50.990;6.962;2023-02-11T17:28:35;103321.97;;;7.90;100.00
49979;BME280;35869;50.990;6.962;2023-02-11T17:33:35;103325.41;;;7.86;100.00
49979;BME280;35869;50.990;6.962;2023-02-11T17:38:36;103323.69;;;7.88;100.00
49979;BME280;35869;50.990;6.962;2023-02-11T17:43:37;103326.22;;;7.85;100.00
49979;BME280;35869;50.990;6.962;2023-02-11T17:48:37;103324.50;;;7.82;100.00
49979;BME280;35869;50.990;6.962;2023-02-11T17:53:38;103327.06;;;7.81;100.00
49979;BME280;35869;50.990;6.962;2023-02-11T17:58:38;103343.44;;;7.78;100.00
49979;BME280;35869;50.990;6.962;2023-02-11T18:03:38;103344.28;;;7.74;100.00
49979;BME280;35869;50.990;6.962;2023-02-11T18:08:38;103340.84;;;7.75;100.00
49979;BME280;35869;50.990;6.962;2023-02-11T18:13:38;103350.31;;;7.74;100.00
49979;BME280;35869;50.990;6.962;2023-02-11T18:18:39;103350.25;;;7.68;100.00
49979;BME280;35869;50.990;6.962;2023-02-11T18:23:39;103357.13;;;7.68;100.00
49979;BME280;35869;50.990;6.962;2023-02-11T18:28:39;103353.72;;;7.72;100.00
49979;BME280;35869;50.990;6.962;2023-02-11T18:33:41;103353.59;;;7.57;100.00
49979;BME280;35869;50.990;6.962;2023-02-11T18:38:41;103351.88;;;7.60;100.00
49979;BME280;35869;50.990;6.962;2023-02-11T18:43:42;103358.84;;;7.63;100.00
49979;BME280;35869;50.990;6.962;2023-02-11T18:48:42;103357.09;;;7.63;100.00
49979;BME280;35869;50.990;6.962;2023-02-11T18:53:43;103350.22;;;7.64;100.00
49979;BME280;35869;50.990;6.962;2023-02-11T18:58:44;103359.66;;;7.59;100.00
49979;BME280;35869;50.990;6.962;2023-02-11T19:03:44;103355.34;;;7.61;100.00
49979;BME280;35869;50.990;6.962;2023-02-11T19:08:44;103358.84;;;7.63;100.00
49979;BME280;35869;50.990;6.962;2023-02-11T19:13:45;103367.47;;;7.63;100.00
49979;BME280;35869;50.990;6.962;2023-02-11T19:18:46;103377.75;;;7.59;100.00
49979;BME280;35869;50.990;6.962;2023-02-11T19:23:46;103370.78;;;7.53;100.00
49979;BME280;35869;50.990;6.962;2023-02-11T19:28:46;103371.66;;;7.55;100.00
49979;BME280;35869;50.990;6.962;2023-02-11T19:33:46;103379.47;;;7.58;100.00
49979;BME280;35869;50.990;6.962;2023-02-11T19:38:46;103388.09;;;7.57;100.00
49979;BME280;35869;50.990;6.962;2023-02-11T19:43:50;103388.94;;;7.56;100.00
49979;BME280;35869;50.990;6.962;2023-02-11T19:48:51;103382.06;;;7.57;100.00
49979;BME280;35869;50.990;6.962;2023-02-11T19:53:51;103380.28;;;7.54;100.00
49979;BME280;35869;50.990;6.962;2023-02-11T19:58:52;103385.47;;;7.54;100.00
49979;BME280;35869;50.990;6.962;2023-02-11T20:03:54;103392.34;;;7.52;100.00
49979;BME280;35869;50.990;6.962;2023-02-11T20:08:58;103397.56;;;7.55;100.00
49979;BME280;35869;50.990;6.962;2023-02-11T20:13:59;103389.78;;;7.54;100.00
49979;BME280;35869;50.990;6.962;2023-02-11T20:18:59;103391.50;;;7.55;100.00
49979;BME280;35869;50.990;6.962;2023-02-11T20:24:00;103400.06;;;7.47;100.00
49979;BME280;35869;50.990;6.962;2023-02-11T20:29:01;103401.78;;;7.45;100.00
49979;BME280;35869;50.990;6.962;2023-02-11T20:34:01;103415.53;;;7.44;100.00
49979;BME280;35869;50.990;6.962;2023-02-11T20:39:03;103414.66;;;7.42;100.00
49979;BME280;35869;50.990;6.962;2023-02-11T20:44:06;103426.72;;;7.42;100.00
49979;BME280;35869;50.990;6.962;2023-02-11T20:49:09;103422.41;;;7.39;100.00
49979;BME280;35869;50.990;6.962;2023-02-11T20:54:14;103431.84;;;7.37;100.00
49979;BME280;35869;50.990;6.962;2023-02-11T20:59:15;103435.28;;;7.35;100.00
49979;BME280;35869;50.990;6.962;2023-02-11T21:04:18;103443.03;;;7.33;100.00
49979;BME280;35869;50.990;6.962;2023-02-11T21:09:21;103436.09;;;7.32;100.00
49979;BME280;35869;50.990;6.962;2023-02-11T21:14:23;103436.06;;;7.29;100.00
49979;BME280;35869;50.990;6.962;2023-02-11T21:19:23;103441.22;;;7.28;100.00
49979;BME280;35869;50.990;6.962;2023-02-11T21:24:24;103437.78;;;7.27;100.00
49979;BME280;35869;50.990;6.962;2023-02-11T21:29:24;103443.75;;;7.25;100.00
49979;BME280;35869;50.990;6.962;2023-02-11T21:34:25;103448.91;;;7.23;100.00
49979;BME280;35869;50.990;6.962;2023-02-11T21:39:25;103450.59;;;7.21;100.00
49979;BME280;35869;50.990;6.962;2023-02-11T21:44:26;103455.75;;;7.19;100.00
49979;BME280;35869;50.990;6.962;2023-02-11T21:49:26;103467.81;;;7.17;100.00
49979;BME280;35869;50.990;6.962;2023-02-11T21:54:26;103465.22;;;7.16;100.00
49979;BME280;35869;50.990;6.962;2023-02-11T21:59:26;103467.75;;;7.14;100.00
49979;BME280;35869;50.990;6.962;2023-02-11T22:04:26;103467.75;;;7.14;100.00
49979;BME280;35869;50.990;6.962;2023-02-11T22:09:27;103463.44;;;7.13;100.00
49979;BME280;35869;50.990;6.962;2023-02-11T22:14:27;103463.44;;;7.13;100.00
49979;BME280;35869;50.990;6.962;2023-02-11T22:19:27;103457.31;;;7.08;100.00
49979;BME280;35869;50.990;6.962;2023-02-11T22:24:29;103459.06;;;7.09;100.00
49979;BME280;35869;50.990;6.962;2023-02-11T22:29:30;103471.09;;;7.07;100.00
49979;BME280;35869;50.990;6.962;2023-02-11T22:34:30;103465.06;;;7.07;100.00
49979;BME280;35869;50.990;6.962;2023-02-11T22:39:31;103469.34;;;7.05;100.00
49979;BME280;35869;50.990;6.962;2023-02-11T22:44:31;103470.22;;;7.04;100.00
49979;BME280;35869;50.990;6.962;2023-02-11T22:49:31;103465.84;;;7.03;100.00
49979;BME280;35869;50.990;6.962;2023-02-11T22:54:31;103474.47;;;7.02;100.00
49979;BME280;35869;50.990;6.962;2023-02-11T22:59:32;103478.75;;;7.00;100.00
49979;BME280;35869;50.990;6.962;2023-02-11T23:04:32;103474.44;;;6.99;100.00
49979;BME280;35869;50.990;6.962;2023-02-11T23:09:32;103485.59;;;6.98;100.00
49979;BME280;35869;50.990;6.962;2023-02-11T23:14:32;103495.94;;;6.96;100.00
49979;BME280;35869;50.990;6.962;2023-02-11T23:19:32;103499.38;;;6.97;100.00
49979;BME280;35869;50.990;6.962;2023-02-11T23:24:33;103499.38;;;6.97;100.00
49979;BME280;35869;50.990;6.962;2023-02-11T23:29:33;103506.25;;;6.94;100.00
49979;BME280;35869;50.990;6.962;2023-02-11T23:34:33;103513.13;;;6.92;100.00
49979;BME280;35869;50.990;6.962;2023-02-11T23:39:33;103505.38;;;6.92;100.00
49979;BME280;35869;50.990;6.962;2023-02-11T23:44:34;103504.47;;;6.90;100.00
49979;BME280;35869;50.990;6.962;2023-02-11T23:49:34;103506.19;;;6.91;100.00
49979;BME280;35869;50.990;6.962;2023-02-11T23:54:34;103504.44;;;6.89;100.00
49979;BME280;35869;50.990;6.962;2023-02-11T23:59:34;103504.47;;;6.90;100.00
